Time;durP1;ratioP1;P1;durP2;ratioP2;P2;SDS_P1;SDS_P2;PMS_P1;PMS_P2;Temp;Humidity;BMP_temperature;BMP_pressure;BME280_temperature;BME280_humidity;BME280_pressure;Samples;Min_cycle;Max_cycle;Signal;HPM_P1;HPM_P2
2021/07/10 00:01:09;;;;;;;;;;;;;;;-142.75;70.35;77347.91;5076080;28;19925;-76
2021/07/10 00:03:34;;;;;;;;;;;;;;;-142.75;69.92;77347.91;5070869;28;19916;-77
2021/07/10 00:05:59;;;;;;;;;;;;;;;-142.75;70.67;77357.75;5096342;28;19916;-77
2021/07/10 00:08:24;;;;;;;;;;;;;;;-142.75;70.95;77361.69;5095648;28;19916;-76
2021/07/10 00:10:49;;;;;;;;;;;;;;;-142.75;71.93;77353.81;5076845;28;19927;-76
2021/07/10 00:13:15;;;;;;;;;;;;;;;-142.75;71.66;77353.81;5095273;28;19943;-76
2021/07/10 00:15:40;;;;;;;;;;;;;;;-142.75;71.81;77355.78;5095000;28;19945;-76
2021/07/10 00:18:05;;;;;;;;;;;;;;;-142.75;71.04;77351.84;5095813;28;19935;-76
2021/07/10 00:20:30;;;;;;;;;;;;;;;-142.75;70.73;77355.78;5094916;28;20008;-76
2021/07/10 00:22:55;;;;;;;;;;;;;;;-142.75;70.90;77359.72;5094876;28;19924;-76
2021/07/10 00:25:21;;;;;;;;;;;;;;;-142.75;71.29;77361.69;5076473;28;19916;-76
2021/07/10 00:27:47;;;;;;;;;;;;;;;-142.75;71.13;77357.75;5095067;28;19916;-76
2021/07/10 00:30:13;;;;;;;;;;;;;;;-142.75;71.32;77363.66;5093830;28;20297;-76
2021/07/10 00:32:38;;;;;;;;;;;;;;;-142.75;71.15;77365.63;5094610;28;19916;-77
2021/07/10 00:35:04;;;;;;;;;;;;;;;-142.75;71.27;77361.69;5076341;28;19928;-76
2021/07/10 00:37:29;;;;;;;;;;;;;;;-142.75;70.65;77357.75;5054988;28;19916;-76
2021/07/10 00:39:54;;;;;;;;;;;;;;;-142.75;71.31;77357.75;5074112;28;19924;-76
2021/07/10 00:42:21;;;;;;;;;;;;;;;-142.75;71.05;77357.75;5073995;28;19917;-76
2021/07/10 00:44:47;;;;;;;;;;;;;;;-142.75;70.95;77365.63;5073488;28;20393;-76
2021/07/10 00:47:12;;;;;;;;;;;;;;;-142.75;71.22;77357.75;5056180;28;20003;-76
2021/07/10 00:49:37;;;;;;;;;;;;;;;-142.75;71.02;77343.97;5056067;28;20010;-76
2021/07/10 00:52:03;;;;;;;;;;;;;;;-142.75;70.76;77343.97;5073688;28;19916;-76
2021/07/10 00:54:28;;;;;;;;;;;;;;;-142.75;70.21;77349.88;5055221;28;19923;-76
2021/07/10 00:56:58;;;;;;;;;;;;;;;-142.75;70.47;77359.72;5073616;28;20012;-76
2021/07/10 00:59:24;;;;;;;;;;;;;;;-142.75;70.58;77371.53;5060981;28;19916;-76
2021/07/10 01:01:49;;;;;;;;;;;;;;;-142.75;70.93;77365.63;5093372;28;19916;-76
2021/07/10 01:04:15;;;;;;;;;;;;;;;-142.75;71.22;77361.69;5093638;28;20015;-76
2021/07/10 01:06:40;;;;;;;;;;;;;;;-142.75;71.13;77361.69;5093695;28;19915;-76
2021/07/10 01:09:05;;;;;;;;;;;;;;;-142.75;71.70;77340.03;5075369;28;20133;-76
2021/07/10 01:11:30;;;;;;;;;;;;;;;-142.75;73.00;77328.22;5092867;28;19923;-76
2021/07/10 01:13:55;;;;;;;;;;;;;;;-142.75;73.00;77318.38;5092983;28;19943;-76
2021/07/10 01:16:21;;;;;;;;;;;;;;;-142.75;72.97;77308.53;5093090;28;19928;-76
2021/07/10 01:18:46;;;;;;;;;;;;;;;-142.75;73.09;77288.84;5093502;28;19924;-76
2021/07/10 01:21:11;;;;;;;;;;;;;;;-142.75;72.83;77275.06;5093310;28;19916;-76
2021/07/10 01:23:36;;;;;;;;;;;;;;;-142.75;72.56;77265.22;5082917;28;19920;-76
2021/07/10 01:26:01;;;;;;;;;;;;;;;-142.75;72.47;77265.22;5073885;28;19977;-77
2021/07/10 01:28:28;;;;;;;;;;;;;;;-142.75;73.25;77247.50;5060227;28;19916;-77
2021/07/10 01:30:54;;;;;;;;;;;;;;;-142.75;73.30;77229.78;5077961;28;19921;-76
2021/07/10 01:33:20;;;;;;;;;;;;;;;-142.75;73.15;77219.94;5073871;28;19916;-77
2021/07/10 01:35:45;;;;;;;;;;;;;;;-142.75;72.83;77204.19;5072888;28;20031;-76
2021/07/10 01:38:11;;;;;;;;;;;;;;;-142.75;72.44;77196.31;5072793;28;19925;-76
2021/07/10 01:40:37;;;;;;;;;;;;;;;-142.75;72.27;77208.13;5093344;28;19917;-76
2021/07/10 01:43:05;;;;;;;;;;;;;;;-142.75;72.11;77216.00;5074849;28;19924;-77
2021/07/10 01:45:31;;;;;;;;;;;;;;;-142.75;71.94;77219.94;5092941;28;19922;-77
2021/07/10 01:47:56;;;;;;;;;;;;;;;-142.75;71.84;77219.94;5060656;28;20007;-77
2021/07/10 01:50:22;;;;;;;;;;;;;;;-142.75;72.10;77219.94;5057297;28;20335;-76
2021/07/10 01:52:48;;;;;;;;;;;;;;;-142.75;72.30;77216.00;5057550;28;19920;-77
2021/07/10 01:55:14;;;;;;;;;;;;;;;-142.75;72.39;77202.22;5074408;28;19927;-76
2021/07/10 01:57:40;;;;;;;;;;;;;;;-142.75;72.58;77204.19;5057702;28;19955;-77
2021/07/10 02:00:07;;;;;;;;;;;;;;;-142.75;72.71;77200.25;5075500;28;19981;-76
2021/07/10 02:02:32;;;;;;;;;;;;;;;-142.75;72.45;77192.38;5097770;28;20015;-76
2021/07/10 02:04:57;;;;;;;;;;;;;;;-142.75;73.53;77160.88;5077913;28;19959;-76
2021/07/10 02:07:22;;;;;;;;;;;;;;;-142.75;74.54;77156.94;5072981;28;19982;-76
2021/07/10 02:09:47;;;;;;;;;;;;;;;-142.75;74.23;77137.25;5072227;28;19916;-76
2021/07/10 02:12:13;;;;;;;;;;;;;;;-142.75;73.37;77131.34;5071140;28;19916;-77
2021/07/10 02:14:38;;;;;;;;;;;;;;;-142.75;72.87;77141.19;5071473;28;19939;-77
2021/07/10 02:17:04;;;;;;;;;;;;;;;-142.75;72.47;77145.13;5071572;28;19916;-77
2021/07/10 02:19:29;;;;;;;;;;;;;;;-142.75;71.87;77143.16;5053601;28;19924;-77
2021/07/10 02:21:54;;;;;;;;;;;;;;;-142.75;71.58;77166.78;5084020;28;19923;-76
2021/07/10 02:24:19;;;;;;;;;;;;;;;-142.75;72.10;77190.41;5092346;28;19920;-76
2021/07/10 02:26:45;;;;;;;;;;;;;;;-142.75;71.93;77208.13;5092767;28;20476;-76
2021/07/10 02:29:10;;;;;;;;;;;;;;;-142.75;72.36;77216.00;5092402;28;20378;-76
2021/07/10 02:31:35;;;;;;;;;;;;;;;-142.75;72.30;77225.84;5090899;28;20345;-76
2021/07/10 02:34:01;;;;;;;;;;;;;;;-142.75;72.64;77231.75;5071523;28;19916;-76
2021/07/10 02:36:26;;;;;;;;;;;;;;;-142.75;72.79;77221.91;5090313;28;19924;-76
2021/07/10 02:38:51;;;;;;;;;;;;;;;-142.75;72.51;77219.94;5091727;28;19960;-77
2021/07/10 02:41:16;;;;;;;;;;;;;;;-142.75;71.87;77225.84;5073593;28;19923;-76
2021/07/10 02:43:42;;;;;;;;;;;;;;;-142.75;72.00;77229.78;5073473;28;19982;-77
2021/07/10 02:46:07;;;;;;;;;;;;;;;-142.75;71.60;77243.56;5090951;28;19917;-77
2021/07/10 02:48:32;;;;;;;;;;;;;;;-142.75;71.65;77257.34;5091906;28;19916;-76
2021/07/10 02:50:57;;;;;;;;;;;;;;;-142.75;71.75;77259.31;5092094;28;20411;-76
2021/07/10 02:53:23;;;;;;;;;;;;;;;-142.75;71.63;77259.31;5092877;28;19924;-76
2021/07/10 02:55:48;;;;;;;;;;;;;;;-142.75;71.62;77259.31;5064233;22;20333;-76
2021/07/10 02:58:13;;;;;;;;;;;;;;;-142.75;71.92;77251.44;5029800;28;19921;-77
2021/07/10 03:00:38;;;;;;;;;;;;;;;-142.75;71.85;77251.44;5030312;28;19916;-77
2021/07/10 03:03:04;;;;;;;;;;;;;;;-142.75;71.74;77239.63;5031454;28;19924;-78
2021/07/10 03:05:31;;;;;;;;;;;;;;;-142.75;71.68;77243.56;5010602;28;19917;-78
2021/07/10 03:07:56;;;;;;;;;;;;;;;-142.75;71.85;77245.53;5010504;28;19917;-77
2021/07/10 03:10:25;;;;;;;;;;;;;;;-142.75;71.72;77243.56;5009919;28;20404;-78
2021/07/10 03:12:50;;;;;;;;;;;;;;;-142.75;71.73;77249.47;5011416;28;19952;-77
2021/07/10 03:15:16;;;;;;;;;;;;;;;-142.75;72.08;77243.56;5009598;28;20007;-77
2021/07/10 03:17:43;;;;;;;;;;;;;;;-142.75;72.30;77235.69;5011320;28;19922;-78
2021/07/10 03:20:08;;;;;;;;;;;;;;;-142.75;71.62;77243.56;5009646;28;19968;-78
2021/07/10 03:22:34;;;;;;;;;;;;;;;-142.75;71.95;77255.38;5009979;28;19971;-77
2021/07/10 03:25:00;;;;;;;;;;;;;;;-142.75;72.25;77257.34;5011495;28;19989;-78
2021/07/10 03:27:25;;;;;;;;;;;;;;;-142.75;73.89;77237.66;5010246;28;19917;-77
2021/07/10 03:29:50;;;;;;;;;;;;;;;-142.75;74.41;77221.91;5009558;28;19922;-77
2021/07/10 03:32:15;;;;;;;;;;;;;;;-142.75;73.96;77219.94;5011137;28;19976;-78
2021/07/10 03:34:41;;;;;;;;;;;;;;;-142.75;75.35;77208.13;5013558;28;19933;-77
2021/07/10 03:37:06;;;;;;;;;;;;;;;-142.75;74.89;77208.13;5013884;28;19918;-79
2021/07/10 03:39:31;;;;;;;;;;;;;;;-142.75;75.97;77204.19;5015183;28;19952;-79
2021/07/10 03:41:56;;;;;;;;;;;;;;;-142.75;76.39;77202.22;5014528;28;20401;-77
2021/07/10 03:44:21;;;;;;;;;;;;;;;-142.75;76.57;77196.31;5013529;28;19917;-77
2021/07/10 03:46:47;;;;;;;;;;;;;;;-142.75;76.62;77200.25;5014676;28;20012;-76
2021/07/10 03:49:12;;;;;;;;;;;;;;;-142.75;76.99;77192.38;5013511;28;19917;-75
2021/07/10 03:51:37;;;;;;;;;;;;;;;-142.75;77.19;77186.47;5014854;28;20391;-78
2021/07/10 03:54:03;;;;;;;;;;;;;;;-142.75;76.88;77188.44;5014686;28;19918;-78
2021/07/10 03:56:28;;;;;;;;;;;;;;;-142.75;76.61;77176.63;5013213;28;20368;-77
2021/07/10 03:58:54;;;;;;;;;;;;;;;-142.75;75.23;77180.56;5013064;28;19917;-78
2021/07/10 04:01:19;;;;;;;;;;;;;;;-142.75;74.32;77180.56;5013983;28;19917;-78
2021/07/10 04:03:44;;;;;;;;;;;;;;;-142.75;72.46;77196.31;5014350;28;20720;-77
2021/07/10 04:06:09;;;;;;;;;;;;;;;-142.75;72.30;77200.25;5013022;28;19940;-79
2021/07/10 04:08:34;;;;;;;;;;;;;;;-142.75;72.72;77210.09;5014405;28;19921;-78
2021/07/10 04:11:00;;;;;;;;;;;;;;;-142.75;73.72;77214.03;5012735;28;19918;-78
2021/07/10 04:13:25;;;;;;;;;;;;;;;-142.75;73.87;77214.03;5014420;28;20399;-77
2021/07/10 04:15:50;;;;;;;;;;;;;;;-142.75;74.86;77194.34;5013108;28;19925;-77
2021/07/10 04:18:15;;;;;;;;;;;;;;;-142.75;74.80;77196.31;5014365;28;19917;-77
2021/07/10 04:20:40;;;;;;;;;;;;;;;-142.75;74.66;77194.34;5014094;28;19972;-78
2021/07/10 04:23:06;;;;;;;;;;;;;;;-142.75;74.13;77184.50;5011386;28;19918;-78
2021/07/10 04:25:31;;;;;;;;;;;;;;;-142.75;73.85;77164.81;5014267;28;20315;-78
2021/07/10 04:27:56;;;;;;;;;;;;;;;-142.75;73.34;77162.84;5012573;28;19956;-77
2021/07/10 04:30:22;;;;;;;;;;;;;;;-142.75;72.58;77172.69;5012378;28;19956;-78
2021/07/10 04:32:48;;;;;;;;;;;;;;;-142.75;72.43;77168.75;5012650;28;20383;-77
2021/07/10 04:35:13;;;;;;;;;;;;;;;-142.75;73.01;77131.34;5013779;28;19960;-78
2021/07/10 04:37:38;;;;;;;;;;;;;;;-142.75;72.88;77103.78;5013516;28;19976;-79
2021/07/10 04:40:05;;;;;;;;;;;;;;;-142.75;72.34;77097.88;5012189;28;19925;-77
2021/07/10 04:42:30;;;;;;;;;;;;;;;-142.75;72.05;77082.13;5013606;28;19929;-78
2021/07/10 04:44:56;;;;;;;;;;;;;;;-142.75;71.72;77062.44;5013044;28;19970;-77
2021/07/10 04:47:21;;;;;;;;;;;;;;;-142.75;71.19;77036.84;5013772;28;19922;-78
2021/07/10 04:49:46;;;;;;;;;;;;;;;-142.75;70.60;77021.09;5013210;28;19921;-78
2021/07/10 04:52:12;;;;;;;;;;;;;;;-142.75;70.62;77013.22;5013711;28;19924;-77
2021/07/10 04:54:37;;;;;;;;;;;;;;;-142.75;70.71;77009.28;5011913;28;19923;-77
2021/07/10 04:57:02;;;;;;;;;;;;;;;-142.75;70.67;76993.53;5013482;28;20368;-78
2021/07/10 04:59:28;;;;;;;;;;;;;;;-142.75;70.71;76989.59;5012145;28;20383;-77
2021/07/10 05:01:53;;;;;;;;;;;;;;;-142.75;70.70;76985.66;5013155;28;19918;-78
2021/07/10 05:04:18;;;;;;;;;;;;;;;-142.75;70.60;76967.94;5012134;28;19917;-78
2021/07/10 05:06:44;;;;;;;;;;;;;;;-142.75;70.35;76956.13;5013096;28;19918;-78
2021/07/10 05:09:09;;;;;;;;;;;;;;;-142.75;70.27;76956.13;5013397;28;20343;-77
2021/07/10 05:11:34;;;;;;;;;;;;;;;-142.75;70.30;76940.38;5011546;28;20297;-78
2021/07/10 05:13:59;;;;;;;;;;;;;;;-142.75;69.85;76922.66;5013196;28;19917;-78
2021/07/10 05:16:25;;;;;;;;;;;;;;;-142.75;69.56;76897.06;5012961;28;19940;-78
2021/07/10 05:18:50;;;;;;;;;;;;;;;-142.75;69.29;76899.03;5013268;28;20011;-78
2021/07/10 05:21:15;;;;;;;;;;;;;;;-142.75;69.69;76926.59;5011556;28;20256;-78
2021/07/10 05:23:41;;;;;;;;;;;;;;;-142.75;69.54;76924.63;5013363;28;20012;-77
2021/07/10 05:26:09;;;;;;;;;;;;;;;-142.75;70.76;76954.16;5011262;28;19932;-77
2021/07/10 05:28:34;;;;;;;;;;;;;;;-142.75;71.36;76958.09;5009761;28;20383;-77
2021/07/10 05:30:59;;;;;;;;;;;;;;;-142.75;71.22;76952.19;5011286;28;19917;-76
2021/07/10 05:33:24;;;;;;;;;;;;;;;-142.75;71.26;76960.06;5011268;28;20004;-75
2021/07/10 05:35:50;;;;;;;;;;;;;;;-142.75;71.13;76944.31;5009349;28;20346;-79
2021/07/10 05:38:17;;;;;;;;;;;;;;;-142.75;71.06;76948.25;5011654;28;20466;-79
2021/07/10 05:40:42;;;;;;;;;;;;;;;-142.75;70.46;76942.34;5011444;28;19964;-79
2021/07/10 05:43:08;;;;;;;;;;;;;;;-142.75;70.49;76922.66;5011846;28;20022;-78
2021/07/10 05:45:33;;;;;;;;;;;;;;;-142.75;70.71;76926.59;5010406;28;20310;-77
2021/07/10 05:47:59;;;;;;;;;;;;;;;-142.75;70.76;76912.81;5011828;28;20403;-78
2021/07/10 05:50:24;;;;;;;;;;;;;;;-142.75;70.51;76901.00;5011198;28;19918;-78
2021/07/10 05:52:49;;;;;;;;;;;;;;;-142.75;70.50;76883.28;5011843;28;19921;-78
2021/07/10 05:55:14;;;;;;;;;;;;;;;-142.75;70.49;76889.19;5009324;28;19956;-78
2021/07/10 05:57:40;;;;;;;;;;;;;;;-142.75;70.06;76879.34;5010141;28;19918;-77
2021/07/10 06:00:06;;;;;;;;;;;;;;;-142.75;69.15;76849.81;5010996;28;19917;-78
2021/07/10 06:02:31;;;;;;;;;;;;;;;-142.75;68.34;76834.06;5011760;28;20379;-78
2021/07/10 06:04:56;;;;;;;;;;;;;;;-142.75;67.87;76810.44;5007995;28;20000;-77
2021/07/10 06:07:22;;;;;;;;;;;;;;;-142.75;66.68;76782.91;5009213;28;19918;-79
2021/07/10 06:09:47;;;;;;;;;;;;;;;-142.75;65.83;76796.69;5010420;28;20403;-78
2021/07/10 06:12:12;;;;;;;;;;;;;;;-142.75;65.61;76755.34;5011671;28;19921;-78
2021/07/10 06:14:37;;;;;;;;;;;;;;;-142.75;65.19;76725.81;5011796;28;20334;-77
2021/07/10 06:17:02;;;;;;;;;;;;;;;-142.75;64.30;76680.53;5011869;28;19922;-78
2021/07/10 06:19:28;;;;;;;;;;;;;;;-142.75;63.65;76662.81;5010232;28;20007;-78
2021/07/10 06:21:53;;;;;;;;;;;;;;;-142.75;63.41;76684.47;5010716;28;19926;-79
2021/07/10 06:24:19;;;;;;;;;;;;;;;-142.75;64.21;76670.69;5012017;28;19918;-78
2021/07/10 06:26:44;;;;;;;;;;;;;;;-142.75;63.95;76633.28;5011519;28;19952;-79
2021/07/10 06:29:09;;;;;;;;;;;;;;;-142.75;62.38;76609.66;5011671;28;19925;-77
2021/07/10 06:31:34;;;;;;;;;;;;;;;-142.75;61.09;76605.72;5011256;28;19917;-77
2021/07/10 06:34:00;;;;;;;;;;;;;;;-142.75;62.43;76617.53;5011423;28;20422;-79
2021/07/10 06:36:26;;;;;;;;;;;;;;;-142.75;61.21;76546.66;5009807;28;19984;-77
2021/07/10 06:38:51;;;;;;;;;;;;;;;-142.75;59.54;76493.53;5010413;28;19925;-75
2021/07/10 06:41:16;;;;;;;;;;;;;;;-142.75;59.23;76467.94;5009742;28;19917;-78
2021/07/10 06:43:41;;;;;;;;;;;;;;;-142.75;58.82;76448.25;5010150;28;20575;-77
2021/07/10 06:46:07;;;;;;;;;;;;;;;-142.75;58.26;76462.03;5011027;28;19925;-76
2021/07/10 06:48:33;;;;;;;;;;;;;;;-142.75;59.75;76491.56;5010144;28;19925;-77
2021/07/10 06:50:58;;;;;;;;;;;;;;;-142.75;60.32;76532.88;5009666;28;19917;-77
2021/07/10 06:53:23;;;;;;;;;;;;;;;-142.75;61.68;76593.91;5011649;28;19924;-78
2021/07/10 06:55:49;;;;;;;;;;;;;;;-142.75;61.55;76611.63;5011019;28;19922;-78
2021/07/10 06:58:14;;;;;;;;;;;;;;;-142.75;62.21;76645.09;5010199;28;19964;-76
2021/07/10 07:00:39;;;;;;;;;;;;;;;-142.75;62.62;76660.84;5010290;28;19925;-77
2021/07/10 07:03:04;;;;;;;;;;;;;;;-142.75;63.40;76721.88;5011360;28;19917;-78
2021/07/10 07:05:30;;;;;;;;;;;;;;;-142.75;64.10;76700.22;5011231;28;19918;-78
2021/07/10 07:07:55;;;;;;;;;;;;;;;-142.75;63.06;76684.47;5012523;28;19918;-76
2021/07/10 07:10:20;;;;;;;;;;;;;;;-142.75;63.46;76680.53;5013740;28;20498;-77
2021/07/10 07:12:47;;;;;;;;;;;;;;;-142.75;62.88;76601.78;5015073;28;20072;-77
2021/07/10 07:15:12;;;;;;;;;;;;;;;-142.75;63.63;76621.47;5015163;28;19925;-78
2021/07/10 07:17:37;;;;;;;;;;;;;;;-142.75;63.13;76617.53;5013904;28;20272;-77
2021/07/10 07:20:04;;;;;;;;;;;;;;;-142.75;61.69;76617.53;5014595;28;19971;-77
2021/07/10 07:22:29;;;;;;;;;;;;;;;-142.75;62.35;76605.72;5014727;28;20391;-78
2021/07/10 07:24:54;;;;;;;;;;;;;;;-142.75;62.34;76578.16;5014871;28;20008;-77
2021/07/10 07:27:20;;;;;;;;;;;;;;;-142.75;61.44;76578.16;5014892;28;19921;-77
2021/07/10 07:29:45;;;;;;;;;;;;;;;-142.75;60.37;76542.72;5014751;28;19918;-78
2021/07/10 07:32:10;;;;;;;;;;;;;;;-142.75;59.83;76527.00;5014655;28;20301;-78
2021/07/10 07:34:35;;;;;;;;;;;;;;;-142.75;59.32;76540.75;5014337;28;19963;-76
2021/07/10 07:37:00;;;;;;;;;;;;;;;-142.75;59.41;76509.28;5014790;28;19945;-78
2021/07/10 07:39:25;;;;;;;;;;;;;;;-142.75;59.69;76499.44;5014799;28;19921;-76
2021/07/10 07:41:51;;;;;;;;;;;;;;;-142.75;59.42;76513.22;5012990;28;19921;-77
2021/07/10 07:44:16;;;;;;;;;;;;;;;-142.75;57.96;76458.09;5014738;28;19918;-78
2021/07/10 07:46:41;;;;;;;;;;;;;;;-142.75;56.44;76367.53;5013842;28;19917;-78
2021/07/10 07:49:07;;;;;;;;;;;;;;;-142.75;56.08;76310.47;5014401;28;19918;-77
2021/07/10 07:51:32;;;;;;;;;;;;;;;-142.75;54.83;76314.41;5012791;28;19917;-77
2021/07/10 07:53:57;;;;;;;;;;;;;;;-142.75;55.73;76385.25;5013114;28;19917;-78
2021/07/10 07:56:24;;;;;;;;;;;;;;;-142.75;55.51;76239.59;5013980;28;19921;-77
2021/07/10 07:58:49;;;;;;;;;;;;;;;-142.75;53.52;76162.84;5012890;28;19953;-77
2021/07/10 08:01:14;;;;;;;;;;;;;;;-142.75;52.07;76135.28;5014207;28;19957;-78
2021/07/10 08:03:39;;;;;;;;;;;;;;;-142.75;50.77;76048.69;5014578;28;19971;-78
2021/07/10 08:06:05;;;;;;;;;;;;;;;-142.75;48.66;75995.53;5013614;28;19924;-77
2021/07/10 08:08:31;;;;;;;;;;;;;;;-142.75;49.02;75967.97;5012894;28;20299;-78
2021/07/10 08:10:56;;;;;;;;;;;;;;;-142.75;48.25;75903.03;5014029;28;19917;-77
2021/07/10 08:13:21;;;;;;;;;;;;;;;-142.75;47.66;75916.81;5013043;28;20427;-78
2021/07/10 08:15:47;;;;;;;;;;;;;;;-142.75;48.55;75964.03;5013965;28;19925;-78
2021/07/10 08:18:12;;;;;;;;;;;;;;;-142.75;48.04;75987.66;5012189;28;19960;-77
2021/07/10 08:20:37;;;;;;;;;;;;;;;-142.75;48.00;75940.44;5013555;28;19921;-78
2021/07/10 08:23:03;;;;;;;;;;;;;;;-142.75;49.10;76131.34;5014034;28;19925;-77
2021/07/10 08:25:29;;;;;;;;;;;;;;;-142.75;50.03;76141.19;5012559;28;19917;-77
2021/07/10 08:27:54;;;;;;;;;;;;;;;-142.75;49.89;76149.06;5013755;28;20403;-77
2021/07/10 08:30:19;;;;;;;;;;;;;;;-142.75;50.45;76099.84;5012042;28;19917;-77
2021/07/10 08:32:46;;;;;;;;;;;;;;;-142.75;49.78;76095.91;5012543;28;20288;-78
2021/07/10 08:35:12;;;;;;;;;;;;;;;-142.75;48.60;76038.84;5012312;28;19929;-78
2021/07/10 08:37:38;;;;;;;;;;;;;;;-142.75;48.09;75995.53;5013895;28;20387;-77
2021/07/10 08:40:04;;;;;;;;;;;;;;;-142.75;49.15;76101.81;5013252;28;19926;-77
2021/07/10 08:42:29;;;;;;;;;;;;;;;-142.75;50.41;76058.53;5012776;28;19917;-77
2021/07/10 08:44:55;;;;;;;;;;;;;;;-142.75;49.50;76034.91;5012613;28;19925;-78
2021/07/10 08:47:20;;;;;;;;;;;;;;;-142.75;49.40;76019.16;5009632;28;20359;-77
2021/07/10 08:49:46;;;;;;;;;;;;;;;-142.75;48.44;75987.66;5013634;28;20326;-76
2021/07/10 08:52:11;;;;;;;;;;;;;;;-142.75;48.10;75962.09;5013939;28;20349;-78
2021/07/10 08:57:01;;;;;;;;;;;;;;;-142.75;47.71;76050.66;5111089;22;20355;-77
2021/07/10 08:59:26;;;;;;;;;;;;;;;-142.75;48.85;76023.09;5089978;28;19935;-76
2021/07/10 09:01:54;;;;;;;;;;;;;;;-142.75;47.76;75971.91;5093007;28;20043;-76
2021/07/10 09:04:20;;;;;;;;;;;;;;;-142.75;47.03;75950.28;5092646;28;20390;-76
2021/07/10 09:06:46;;;;;;;;;;;;;;;-142.75;46.98;75918.78;5074523;28;19923;-76
2021/07/10 09:09:11;;;;;;;;;;;;;;;-142.75;46.30;75879.41;5092772;28;19916;-76
2021/07/10 09:11:36;;;;;;;;;;;;;;;-142.75;48.33;76066.41;5093140;28;20351;-76
2021/07/10 09:14:02;;;;;;;;;;;;;;;-142.75;47.80;76019.16;5091905;28;19920;-76
2021/07/10 09:16:31;;;;;;;;;;;;;;;-142.75;48.09;76011.28;5092488;28;19924;-76
2021/07/10 09:18:59;;;;;;;;;;;;;;;-142.75;47.53;76023.09;5092688;28;19915;-76
2021/07/10 09:21:43;;;;;;;;;;;;;;;-142.75;47.11;75993.56;5092290;28;20367;-77
2021/07/10 09:24:11;;;;;;;;;;;;;;;-142.75;47.04;75966.00;5092443;28;19998;-76
2021/07/10 09:26:41;;;;;;;;;;;;;;;-142.75;47.11;75950.28;5091169;28;20440;-76
2021/07/10 09:29:08;;;;;;;;;;;;;;;-142.75;46.26;75971.91;5084500;28;19942;-76
2021/07/10 09:31:35;;;;;;;;;;;;;;;-142.75;45.71;76019.16;5093189;28;20442;-76
2021/07/10 09:34:03;;;;;;;;;;;;;;;-142.75;46.19;75987.66;5095054;28;19923;-77
2021/07/10 09:36:29;;;;;;;;;;;;;;;-142.75;46.93;75958.16;5090769;28;19920;-76
2021/07/10 09:38:54;;;;;;;;;;;;;;;-142.75;46.23;75958.16;5090434;28;20580;-76
2021/07/10 09:41:24;;;;;;;;;;;;;;;-142.75;46.72;76048.69;5089877;28;20007;-76
2021/07/10 09:43:49;;;;;;;;;;;;;;;-142.75;46.45;76086.06;5091461;28;19996;-77
2021/07/10 09:46:23;;;;;;;;;;;;;;;-142.75;46.91;75989.63;5092100;28;19916;-77
2021/07/10 09:48:48;;;;;;;;;;;;;;;-142.75;46.73;75920.75;5092309;28;19916;-77
2021/07/10 09:51:21;;;;;;;;;;;;;;;-142.75;45.47;76038.84;5092387;28;20002;-76
2021/07/10 09:54:01;;;;;;;;;;;;;;;-142.75;46.86;76129.38;5092289;28;20293;-77
2021/07/10 09:56:27;;;;;;;;;;;;;;;-142.75;47.04;76023.09;5076550;28;19920;-77
2021/07/10 09:58:52;;;;;;;;;;;;;;;-142.75;46.89;76062.47;5089674;28;20484;-77
2021/07/10 10:01:35;;;;;;;;;;;;;;;-142.75;47.29;76029.00;5082341;28;19928;-76
2021/07/10 10:04:01;;;;;;;;;;;;;;;-142.75;45.53;75938.47;5092854;28;19920;-77
2021/07/10 10:06:34;;;;;;;;;;;;;;;-142.75;45.70;76025.06;5074486;28;19923;-77
2021/07/10 10:09:00;;;;;;;;;;;;;;;-142.75;47.89;76101.81;5091896;28;19969;-76
2021/07/10 10:11:45;;;;;;;;;;;;;;;-142.75;45.78;76040.81;5093582;28;20340;-77
2021/07/10 10:14:10;;;;;;;;;;;;;;;-142.75;45.31;75962.09;5073789;28;19916;-76
2021/07/10 10:16:37;;;;;;;;;;;;;;;-142.75;44.73;75901.06;5093339;28;19972;-78
2021/07/10 10:19:03;;;;;;;;;;;;;;;-142.75;42.78;75897.13;5073926;28;20381;-76
2021/07/10 10:21:28;;;;;;;;;;;;;;;-142.75;43.63;75782.97;5093459;28;20007;-77
2021/07/10 10:23:53;;;;;;;;;;;;;;;-142.75;42.86;75779.03;5092814;28;19923;-77
2021/07/10 10:26:19;;;;;;;;;;;;;;;-142.75;43.81;75637.34;5093099;28;19920;-76
2021/07/10 10:28:44;;;;;;;;;;;;;;;-142.75;41.48;75548.78;5091527;28;20313;-76
2021/07/10 10:31:09;;;;;;;;;;;;;;;-142.75;43.08;75873.50;5074273;28;20010;-77
2021/07/10 10:33:35;;;;;;;;;;;;;;;-142.75;43.30;75765.25;5091851;28;20357;-76
2021/07/10 10:36:00;;;;;;;;;;;;;;;-142.75;42.40;75714.09;5089829;28;19928;-77
2021/07/10 10:38:25;;;;;;;;;;;;;;;-142.75;41.51;75739.69;5078150;28;19916;-76
2021/07/10 10:40:54;;;;;;;;;;;;;;;-142.75;43.45;75889.25;5091743;28;19969;-75
2021/07/10 10:43:21;;;;;;;;;;;;;;;-142.75;45.74;75977.81;5084325;28;19919;-78
2021/07/10 10:45:47;;;;;;;;;;;;;;;-142.75;46.65;76042.78;5088880;28;19974;-77
2021/07/10 10:48:15;;;;;;;;;;;;;;;-142.75;45.82;75960.13;5098812;28;20007;-77
2021/07/10 10:50:40;;;;;;;;;;;;;;;-142.75;46.63;76017.19;5092403;28;20377;-77
2021/07/10 10:53:07;;;;;;;;;;;;;;;-142.75;46.25;75995.53;5093070;28;19922;-77
2021/07/10 10:55:32;;;;;;;;;;;;;;;-142.75;45.59;75983.72;5096899;28;19960;-76
2021/07/10 10:58:01;;;;;;;;;;;;;;;-142.75;45.97;75934.53;5098159;28;19951;-77
2021/07/10 11:00:36;;;;;;;;;;;;;;;-142.75;44.25;75782.97;5096753;28;19939;-76
2021/07/10 11:03:28;;;;;;;;;;;;;;;-142.75;43.25;75674.72;5078862;28;19916;-76
2021/07/10 11:05:58;;;;;;;;;;;;;;;-142.75;41.60;75611.75;5091863;28;19923;-76
2021/07/10 11:08:27;;;;;;;;;;;;;;;-142.75;41.52;75716.06;5098729;28;19916;-78
2021/07/10 11:10:52;;;;;;;;;;;;;;;-142.75;41.94;75755.44;5098202;28;19923;-77
2021/07/10 11:13:35;;;;;;;;;;;;;;;-142.75;42.39;75684.56;5098129;28;21513;-76
2021/07/10 11:16:03;;;;;;;;;;;;;;;-142.75;42.18;75657.03;5098145;28;19943;-77
2021/07/10 11:18:28;;;;;;;;;;;;;;;-142.75;42.23;75660.97;5096681;28;19916;-76
2021/07/10 11:20:54;;;;;;;;;;;;;;;-142.75;42.29;75767.22;5098000;28;19968;-77
2021/07/10 11:23:22;;;;;;;;;;;;;;;-142.75;42.73;75849.91;5080016;28;19971;-77
2021/07/10 11:25:50;;;;;;;;;;;;;;;-142.75;44.30;75873.50;5079194;28;20397;-77
2021/07/10 11:28:16;;;;;;;;;;;;;;;-142.75;44.68;76030.97;5098211;28;20507;-77
2021/07/10 11:30:45;;;;;;;;;;;;;;;-142.75;46.40;76007.34;5097271;28;19950;-77
2021/07/10 11:33:11;;;;;;;;;;;;;;;-142.75;45.69;75997.50;5098334;28;19916;-77
2021/07/10 11:35:36;;;;;;;;;;;;;;;-142.75;46.30;75971.91;5078537;28;19927;-76
2021/07/10 11:38:02;;;;;;;;;;;;;;;-142.75;46.12;75908.94;5079521;28;19923;-77
2021/07/10 11:40:38;;;;;;;;;;;;;;;-142.75;45.22;75804.63;5078732;28;19921;-77
2021/07/10 11:43:07;;;;;;;;;;;;;;;-142.75;44.09;75676.69;5113062;28;19917;-76
2021/07/10 11:45:33;;;;;;;;;;;;;;;-142.75;42.20;75694.41;5095880;28;19920;-77
2021/07/10 11:48:00;;;;;;;;;;;;;;;-142.75;41.94;75747.56;5098475;28;20400;-75
2021/07/10 11:50:27;;;;;;;;;;;;;;;-142.75;40.41;75700.31;5096228;28;19924;-76
2021/07/10 11:52:57;;;;;;;;;;;;;;;-142.75;42.67;75664.91;5096022;28;19916;-76
2021/07/10 11:55:23;;;;;;;;;;;;;;;-142.75;41.75;75743.63;5094145;28;19924;-75
2021/07/10 11:57:48;;;;;;;;;;;;;;;-142.75;42.07;75798.72;5095086;28;19924;-76
2021/07/10 12:00:14;;;;;;;;;;;;;;;-142.75;42.42;75751.50;5094901;28;19923;-77
2021/07/10 12:02:40;;;;;;;;;;;;;;;-142.75;43.08;75849.91;5095630;28;20467;-77
2021/07/10 12:05:06;;;;;;;;;;;;;;;-142.75;43.28;75851.88;5076979;28;19938;-77
2021/07/10 12:07:31;;;;;;;;;;;;;;;-142.75;43.53;75820.38;5081847;28;19920;-78
2021/07/10 12:09:56;;;;;;;;;;;;;;;-142.75;44.92;75786.91;5084394;28;19916;-77
2021/07/10 12:12:22;;;;;;;;;;;;;;;-142.75;42.83;75786.91;5096214;28;19923;-77
2021/07/10 12:14:54;;;;;;;;;;;;;;;-142.75;43.12;75753.47;5095244;28;19916;-77
2021/07/10 12:17:20;;;;;;;;;;;;;;;-142.75;41.40;75725.91;5086456;28;19947;-77
2021/07/10 12:19:46;;;;;;;;;;;;;;;-142.75;42.40;75678.66;5094638;28;20389;-76
2021/07/10 12:22:11;;;;;;;;;;;;;;;-142.75;42.03;75676.69;5094939;28;19976;-77
2021/07/10 12:24:37;;;;;;;;;;;;;;;-142.75;42.38;75702.28;5077000;28;19951;-77